createdAt,value
2018-12-04T00:00:03.966Z,10.41
2018-12-04T00:00:44.531Z,10.35
2018-12-04T00:01:25.106Z,10.4
2018-12-04T00:02:05.675Z,10.26
2018-12-04T00:02:46.237Z,10.28
2018-12-04T00:03:26.829Z,10.4
2018-12-04T00:04:07.415Z,10.35
2018-12-04T00:04:47.977Z,10.34
2018-12-04T00:05:28.526Z,10.35
2018-12-04T00:06:09.078Z,10.26
2018-12-04T00:06:49.646Z,10.37
2018-12-04T00:07:30.227Z,10.28
2018-12-04T00:08:10.790Z,10.26
2018-12-04T00:08:51.354Z,10.23
2018-12-04T00:09:31.974Z,10.34
2018-12-04T00:10:12.545Z,10.2
2018-12-04T00:10:53.109Z,10.3
2018-12-04T00:11:33.684Z,10.28
2018-12-04T00:12:14.236Z,10.26
2018-12-04T00:12:54.812Z,10.26
2018-12-04T00:13:35.373Z,10.38
2018-12-04T00:14:15.946Z,10.37
2018-12-04T00:14:56.556Z,10.26
2018-12-04T00:15:37.117Z,10.35
2018-12-04T00:16:17.684Z,10.28
2018-12-04T00:16:58.254Z,10.23
2018-12-04T00:17:38.810Z,10.31
2018-12-04T00:18:19.378Z,10.33
2018-12-04T00:18:59.967Z,10.35
2018-12-04T00:19:40.551Z,10.35
2018-12-04T00:20:21.118Z,10.33
2018-12-04T00:21:01.672Z,10.34
2018-12-04T00:21:42.251Z,10.37
2018-12-04T00:22:22.826Z,10.37
2018-12-04T00:23:03.404Z,10.28
2018-12-04T00:23:43.949Z,10.23
2018-12-04T00:24:24.519Z,10.31
2018-12-04T00:25:05.073Z,10.35
2018-12-04T00:25:45.663Z,10.19
2018-12-04T00:26:26.212Z,10.33
2018-12-04T00:27:06.769Z,10.22
2018-12-04T00:27:47.328Z,10.31
2018-12-04T00:28:27.895Z,10.28
2018-12-04T00:29:08.518Z,10.33
2018-12-04T00:29:49.078Z,10.34
2018-12-04T00:30:29.635Z,10.19
2018-12-04T00:31:10.219Z,10.2
2018-12-04T00:31:50.767Z,10.23
2018-12-04T00:32:31.320Z,10.22
2018-12-04T00:33:11.881Z,10.31
2018-12-04T00:33:52.481Z,10.34
2018-12-04T00:34:33.042Z,10.33
2018-12-04T00:35:13.622Z,10.34
2018-12-04T00:35:54.177Z,10.35
2018-12-04T00:36:34.733Z,10.3
2018-12-04T00:37:15.305Z,10.33
2018-12-04T00:37:55.842Z,10.35
2018-12-04T00:38:36.398Z,10.26
2018-12-04T00:39:16.945Z,10.34
2018-12-04T00:39:57.511Z,10.31
2018-12-04T00:40:38.081Z,10.3
2018-12-04T00:41:18.653Z,10.34
2018-12-04T00:41:59.238Z,10.3
2018-12-04T00:42:39.783Z,10.3
2018-12-04T00:43:20.351Z,10.35
2018-12-04T00:44:00.902Z,10.37
2018-12-04T00:44:41.455Z,10.25
2018-12-04T00:45:21.997Z,10.23
2018-12-04T00:46:02.623Z,10.25
2018-12-04T00:46:43.194Z,10.35
2018-12-04T00:47:23.753Z,10.34
2018-12-04T00:48:04.306Z,10.34
2018-12-04T00:48:44.879Z,10.34
2018-12-04T00:49:25.438Z,10.26
2018-12-04T00:50:06.013Z,10.26
2018-12-04T00:50:46.588Z,10.22
2018-12-04T00:51:27.152Z,10.33
2018-12-04T00:52:07.731Z,10.31
2018-12-04T00:52:48.312Z,10.22
2018-12-04T00:53:28.938Z,10.26
2018-12-04T00:54:09.462Z,10.25
2018-12-04T00:54:50.041Z,10.37
2018-12-04T00:55:30.595Z,10.3
2018-12-04T00:56:11.185Z,10.3
2018-12-04T00:56:51.797Z,10.23
2018-12-04T00:57:32.313Z,10.34
2018-12-04T00:58:12.903Z,10.34
2018-12-04T00:58:53.493Z,10.4
2018-12-04T00:59:34.041Z,10.42
2018-12-04T01:00:14.612Z,10.35
2018-12-04T01:00:55.170Z,10.37
2018-12-04T01:01:35.729Z,10.37
2018-12-04T01:02:16.297Z,10.31
2018-12-04T01:02:56.867Z,10.4
2018-12-04T01:03:37.420Z,10.42
2018-12-04T01:04:17.981Z,10.4
2018-12-04T01:04:58.572Z,10.42
2018-12-04T01:05:39.122Z,10.34
2018-12-04T01:06:19.685Z,10.38
2018-12-04T01:07:00.330Z,10.48
2018-12-04T01:07:40.869Z,10.4
2018-12-04T01:08:21.441Z,10.37
2018-12-04T01:09:01.985Z,10.53
2018-12-04T01:09:42.543Z,10.37
2018-12-04T01:10:23.103Z,10.49
2018-12-04T01:11:03.660Z,10.49
2018-12-04T01:11:44.219Z,10.35
2018-12-04T01:12:24.774Z,10.49
2018-12-04T01:13:05.322Z,10.46
2018-12-04T01:13:45.941Z,10.46
2018-12-04T01:14:26.496Z,10.4
2018-12-04T01:15:07.044Z,10.41
2018-12-04T01:15:47.590Z,10.46
2018-12-04T01:16:28.152Z,10.46
2018-12-04T01:17:08.716Z,10.4
2018-12-04T01:17:49.308Z,10.51
2018-12-04T01:18:29.879Z,10.49
2018-12-04T01:19:10.438Z,10.4
2018-12-04T01:19:50.991Z,10.48
2018-12-04T01:20:31.551Z,10.4
2018-12-04T01:21:12.108Z,10.44
2018-12-04T01:21:52.737Z,10.48
2018-12-04T01:22:33.290Z,10.48
2018-12-04T01:23:13.899Z,10.44
2018-12-04T01:23:54.408Z,10.53
2018-12-04T01:24:34.960Z,10.49
2018-12-04T01:25:15.518Z,10.53
2018-12-04T01:25:56.083Z,10.53
2018-12-04T01:26:36.664Z,10.54
2018-12-04T01:27:17.211Z,10.54
2018-12-04T01:27:57.770Z,10.54
2018-12-04T01:28:38.338Z,10.56
2018-12-04T01:29:18.906Z,10.56
2018-12-04T01:29:59.503Z,10.44
2018-12-04T01:30:40.053Z,10.54
2018-12-04T01:31:20.638Z,10.51
2018-12-04T01:32:01.210Z,10.46
2018-12-04T01:32:41.761Z,10.54
2018-12-04T01:33:22.311Z,10.57
2018-12-04T01:34:02.875Z,10.59
2018-12-04T01:34:43.449Z,10.56
2018-12-04T01:35:24.269Z,10.56
2018-12-04T01:36:04.884Z,10.57
2018-12-04T01:36:45.477Z,10.61
2018-12-04T01:37:26.063Z,10.63
2018-12-04T01:38:06.660Z,10.61
2018-12-04T01:38:47.229Z,10.6
2018-12-04T01:39:27.796Z,10.6
2018-12-04T01:40:08.344Z,10.63
2018-12-04T01:40:48.895Z,10.61
2018-12-04T01:41:29.480Z,10.64
2018-12-04T01:42:10.047Z,10.61
2018-12-04T01:42:50.605Z,10.63
2018-12-04T01:43:31.167Z,10.64
2018-12-04T01:44:11.733Z,10.6
2018-12-04T01:44:52.291Z,10.67
2018-12-04T01:45:32.852Z,10.54
2018-12-04T01:46:13.420Z,10.64
2018-12-04T01:46:53.971Z,10.59
2018-12-04T01:47:34.546Z,10.61
2018-12-04T01:48:15.100Z,10.56
2018-12-04T01:48:55.677Z,10.61
2018-12-04T01:49:36.240Z,10.6
2018-12-04T01:50:16.792Z,10.64
2018-12-04T01:50:57.419Z,10.63
2018-12-04T01:51:37.985Z,10.57
2018-12-04T01:52:18.547Z,10.57
2018-12-04T01:52:59.102Z,10.63
2018-12-04T01:53:39.687Z,10.57
2018-12-04T01:54:20.260Z,10.6
2018-12-04T01:55:00.822Z,10.54
2018-12-04T01:55:41.386Z,10.61
2018-12-04T01:56:21.952Z,10.61
2018-12-04T01:57:02.502Z,10.68
2018-12-04T01:57:43.084Z,10.63
2018-12-04T01:58:23.636Z,10.59
2018-12-04T01:59:04.185Z,10.57
2018-12-04T01:59:44.750Z,10.6
2018-12-04T02:00:25.299Z,10.59
2018-12-04T02:01:05.937Z,10.6
2018-12-04T02:01:46.497Z,10.63
2018-12-04T02:02:27.065Z,10.64
2018-12-04T02:03:07.623Z,10.61
2018-12-04T02:03:48.181Z,10.59
2018-12-04T02:04:28.748Z,10.63
2018-12-04T02:05:09.306Z,10.6
2018-12-04T02:05:49.898Z,10.61
2018-12-04T02:06:30.453Z,10.59
2018-12-04T02:07:11.015Z,10.61
2018-12-04T02:07:51.606Z,10.59
2018-12-04T02:08:32.160Z,10.63
2018-12-04T02:09:12.759Z,10.67
2018-12-04T02:09:53.339Z,10.63
2018-12-04T02:10:33.913Z,10.68
2018-12-04T02:11:14.499Z,10.67
2018-12-04T02:11:55.044Z,10.69
2018-12-04T02:12:35.595Z,10.69
2018-12-04T02:13:16.158Z,10.72
2018-12-04T02:13:56.741Z,10.72
2018-12-04T02:14:37.297Z,10.72
2018-12-04T02:15:17.875Z,10.71
2018-12-04T02:15:58.431Z,10.72
2018-12-04T02:16:38.995Z,10.71
2018-12-04T02:17:19.558Z,10.72
2018-12-04T02:18:00.116Z,10.74
2018-12-04T02:18:40.696Z,10.75
2018-12-04T02:19:21.274Z,10.74
2018-12-04T02:20:01.858Z,10.71
2018-12-04T02:20:42.425Z,10.69
2018-12-04T02:21:22.978Z,10.75
2018-12-04T02:22:03.548Z,10.75
2018-12-04T02:22:44.110Z,10.75
2018-12-04T02:23:24.700Z,10.81
2018-12-04T02:24:05.301Z,10.81
2018-12-04T02:24:45.879Z,10.81
2018-12-04T02:25:26.444Z,10.81
2018-12-04T02:26:06.996Z,10.79
2018-12-04T02:26:47.578Z,10.81
2018-12-04T02:27:28.134Z,10.75
2018-12-04T02:28:08.711Z,10.81
2018-12-04T02:28:49.265Z,10.79
2018-12-04T02:29:29.860Z,10.81
2018-12-04T02:30:10.438Z,10.75
2018-12-04T02:30:51.015Z,10.76
2018-12-04T02:31:31.583Z,10.71
2018-12-04T02:32:12.149Z,10.76
2018-12-04T02:32:52.702Z,10.76
2018-12-04T02:33:33.269Z,10.72
2018-12-04T02:34:13.828Z,10.79
2018-12-04T02:34:54.368Z,10.81
2018-12-04T02:35:34.929Z,10.81
2018-12-04T02:36:15.464Z,10.78
2018-12-04T02:36:56.024Z,10.71
2018-12-04T02:37:36.593Z,10.79
2018-12-04T02:38:17.261Z,10.81
2018-12-04T02:38:57.831Z,10.79
2018-12-04T02:39:38.384Z,10.75
2018-12-04T02:40:18.934Z,10.82
2018-12-04T02:40:59.502Z,10.81
2018-12-04T02:41:40.057Z,10.84
2018-12-04T02:42:20.607Z,10.79
2018-12-04T02:43:01.206Z,10.79
2018-12-04T02:43:41.827Z,10.74
2018-12-04T02:44:22.384Z,10.72
2018-12-04T02:45:02.933Z,10.76
2018-12-04T02:45:43.488Z,10.82
2018-12-04T02:46:24.035Z,10.9
2018-12-04T02:47:04.584Z,10.82
2018-12-04T02:47:45.138Z,10.79
2018-12-04T02:48:25.692Z,10.78
2018-12-04T02:49:06.248Z,10.84
2018-12-04T02:49:46.816Z,10.76
2018-12-04T02:50:27.374Z,10.79
2018-12-04T02:51:07.977Z,10.79
2018-12-04T02:51:48.529Z,10.84
2018-12-04T02:52:29.082Z,10.81
2018-12-04T02:53:09.645Z,10.86
2018-12-04T02:53:50.212Z,10.82
2018-12-04T02:54:30.785Z,10.82
2018-12-04T02:55:11.345Z,10.84
2018-12-04T02:55:51.898Z,10.84
2018-12-04T02:56:32.471Z,10.84
2018-12-04T02:57:13.029Z,10.87
2018-12-04T02:57:53.589Z,10.84
2018-12-04T02:58:34.161Z,10.86
2018-12-04T02:59:14.720Z,10.87
2018-12-04T02:59:55.299Z,10.81
2018-12-04T03:00:35.867Z,10.82
2018-12-04T03:01:16.439Z,10.94
2018-12-04T03:01:57.004Z,10.81
2018-12-04T03:02:37.557Z,10.89
2018-12-04T03:03:18.168Z,10.9
2018-12-04T03:03:58.726Z,10.84
2018-12-04T03:04:39.282Z,11
2018-12-04T03:05:19.838Z,10.9
2018-12-04T03:06:00.400Z,10.9
2018-12-04T03:06:40.947Z,10.93
2018-12-04T03:07:21.505Z,10.94
2018-12-04T03:08:02.062Z,10.97
2018-12-04T03:08:42.653Z,10.96
2018-12-04T03:09:23.248Z,10.94
2018-12-04T03:10:03.812Z,11.04
2018-12-04T03:10:44.363Z,10.99
2018-12-04T03:11:24.911Z,10.92
2018-12-04T03:12:05.475Z,11
2018-12-04T03:12:46.073Z,10.87
2018-12-04T03:13:26.656Z,10.96
2018-12-04T03:14:07.192Z,10.99
2018-12-04T03:14:47.741Z,10.94
2018-12-04T03:15:28.306Z,10.9
2018-12-04T03:16:08.865Z,10.94
2018-12-04T03:16:49.416Z,10.92
2018-12-04T03:17:29.987Z,10.94
2018-12-04T03:18:10.526Z,10.92
2018-12-04T03:18:51.086Z,10.99
2018-12-04T03:19:31.640Z,10.93
2018-12-04T03:20:12.250Z,11.07
2018-12-04T03:20:52.807Z,10.99
2018-12-04T03:21:33.364Z,10.93
2018-12-04T03:22:13.923Z,10.94
2018-12-04T03:22:54.478Z,10.87
2018-12-04T03:23:35.035Z,10.89
2018-12-04T03:24:15.590Z,10.84
2018-12-04T03:24:56.134Z,10.84
2018-12-04T03:25:36.707Z,10.78
2018-12-04T03:26:17.286Z,10.76
2018-12-04T03:26:57.865Z,10.75
2018-12-04T03:27:38.415Z,10.81
2018-12-04T03:28:18.968Z,10.78
2018-12-04T03:28:59.529Z,10.74
2018-12-04T03:29:40.104Z,10.76
2018-12-04T03:30:20.657Z,10.76
2018-12-04T03:31:01.231Z,10.74
2018-12-04T03:31:41.824Z,10.74
2018-12-04T03:32:22.376Z,10.79
2018-12-04T03:33:02.962Z,10.76
2018-12-04T03:33:43.521Z,10.63
2018-12-04T03:34:24.139Z,10.59
2018-12-04T03:35:04.673Z,10.57
2018-12-04T03:35:45.312Z,10.61
2018-12-04T03:36:25.857Z,10.57
2018-12-04T03:37:06.419Z,10.54
2018-12-04T03:37:47.093Z,10.54
2018-12-04T03:38:27.651Z,10.48
2018-12-04T03:39:08.214Z,10.49
2018-12-04T03:39:48.784Z,10.49
2018-12-04T03:40:29.333Z,10.44
2018-12-04T03:41:09.935Z,10.44
2018-12-04T03:41:50.474Z,10.46
2018-12-04T03:42:31.033Z,10.54
2018-12-04T03:43:11.598Z,10.37
2018-12-04T03:43:52.170Z,10.31
2018-12-04T03:44:32.744Z,10.31
2018-12-04T03:45:13.309Z,10.3
2018-12-04T03:45:53.858Z,10.22
2018-12-04T03:46:34.422Z,10.35
2018-12-04T03:47:15.005Z,10.23
2018-12-04T03:47:55.578Z,10.2
2018-12-04T03:48:36.144Z,10.23
2018-12-04T03:49:16.764Z,10.23
2018-12-04T03:49:57.338Z,10.22
2018-12-04T03:50:37.893Z,10.25
2018-12-04T03:51:18.563Z,10.2
2018-12-04T03:51:59.134Z,10.17
2018-12-04T03:52:39.697Z,10.28
2018-12-04T03:53:20.282Z,10.26
2018-12-04T03:54:00.891Z,10.23
2018-12-04T03:54:41.505Z,10.16
2018-12-04T03:55:22.062Z,10.15
2018-12-04T03:56:02.618Z,10.22
2018-12-04T03:56:43.196Z,10.2
2018-12-04T03:57:23.778Z,10.17
2018-12-04T03:58:04.331Z,10.09
2018-12-04T03:58:44.902Z,10.15
2018-12-04T03:59:25.528Z,10.2
2018-12-04T04:00:06.048Z,10.13
2018-12-04T04:00:46.621Z,10.17
2018-12-04T04:01:27.183Z,10.07
2018-12-04T04:02:07.748Z,10.1
2018-12-04T04:02:48.370Z,10.04
2018-12-04T04:03:28.914Z,10.01
2018-12-04T04:04:09.562Z,9.97
2018-12-04T04:04:50.114Z,10.04
2018-12-04T04:05:30.690Z,9.99
2018-12-04T04:06:11.263Z,9.98
2018-12-04T04:06:51.812Z,9.97
2018-12-04T04:07:32.377Z,10.04
2018-12-04T04:08:12.944Z,9.99
2018-12-04T04:08:53.499Z,9.95
2018-12-04T04:09:34.069Z,9.97
2018-12-04T04:10:14.641Z,10.01
2018-12-04T04:10:55.214Z,9.97
2018-12-04T04:11:35.764Z,9.95
2018-12-04T04:12:16.324Z,9.95
2018-12-04T04:12:56.889Z,9.99
2018-12-04T04:13:37.471Z,9.99
2018-12-04T04:14:18.026Z,9.95
2018-12-04T04:14:58.610Z,9.97
2018-12-04T04:15:39.172Z,9.99
2018-12-04T04:16:19.724Z,9.94
2018-12-04T04:17:00.277Z,10.01
2018-12-04T04:17:40.844Z,10.04
2018-12-04T04:18:21.426Z,10.04
2018-12-04T04:19:01.995Z,10.02
2018-12-04T04:19:42.558Z,10.04
2018-12-04T04:20:23.118Z,9.95
2018-12-04T04:21:03.671Z,9.98
2018-12-04T04:21:44.238Z,9.97
2018-12-04T04:22:24.802Z,9.86
2018-12-04T04:23:05.362Z,9.82
2018-12-04T04:23:45.923Z,9.82
2018-12-04T04:24:26.483Z,9.91
2018-12-04T04:25:07.074Z,9.86
2018-12-04T04:25:47.633Z,9.8
2018-12-04T04:26:28.184Z,9.8
2018-12-04T04:27:08.742Z,9.84
2018-12-04T04:27:49.309Z,9.72
2018-12-04T04:28:29.890Z,9.8
2018-12-04T04:29:10.447Z,9.73
2018-12-04T04:29:50.993Z,9.72
2018-12-04T04:30:31.591Z,9.76
2018-12-04T04:31:12.144Z,9.73
2018-12-04T04:31:52.704Z,9.73
2018-12-04T04:32:33.275Z,9.76
2018-12-04T04:33:13.875Z,9.72
2018-12-04T04:33:54.444Z,9.72
2018-12-04T04:34:34.992Z,9.73
2018-12-04T04:35:15.551Z,9.69
2018-12-04T04:35:56.114Z,9.69
2018-12-04T04:36:36.678Z,9.66
2018-12-04T04:37:17.291Z,9.77
2018-12-04T04:37:57.853Z,9.73
2018-12-04T04:38:38.399Z,9.68
2018-12-04T04:39:18.968Z,9.77
2018-12-04T04:39:59.524Z,9.66
2018-12-04T04:40:40.091Z,9.73
2018-12-04T04:41:20.653Z,9.72
2018-12-04T04:42:01.208Z,9.65
2018-12-04T04:42:41.785Z,9.66
2018-12-04T04:43:22.351Z,9.64
2018-12-04T04:44:02.904Z,9.62
2018-12-04T04:44:43.464Z,9.68
2018-12-04T04:45:24.012Z,9.66
2018-12-04T04:46:04.596Z,9.65
2018-12-04T04:46:45.164Z,9.59
2018-12-04T04:47:25.751Z,9.65
2018-12-04T04:48:06.300Z,9.59
2018-12-04T04:48:46.857Z,9.64
2018-12-04T04:49:27.425Z,9.68
2018-12-04T04:50:07.960Z,9.65
2018-12-04T04:50:48.539Z,9.61
2018-12-04T04:51:29.071Z,9.59
2018-12-04T04:52:09.644Z,9.59
2018-12-04T04:52:50.215Z,9.5
2018-12-04T04:53:30.773Z,9.5
2018-12-04T04:54:11.326Z,9.51
2018-12-04T04:54:51.890Z,9.51
2018-12-04T04:55:32.454Z,9.5
2018-12-04T04:56:13.020Z,9.59
2018-12-04T04:56:53.579Z,9.54
2018-12-04T04:57:34.143Z,9.48
2018-12-04T04:58:14.675Z,9.59
2018-12-04T04:58:55.238Z,9.54
2018-12-04T04:59:35.785Z,9.51
2018-12-04T05:00:16.357Z,9.55
2018-12-04T05:00:56.963Z,9.54
2018-12-04T05:01:37.527Z,9.55
2018-12-04T05:02:18.092Z,9.51
2018-12-04T05:02:58.641Z,9.54
2018-12-04T05:03:39.240Z,9.5
2018-12-04T05:04:19.820Z,9.61
2018-12-04T05:05:00.396Z,9.55
2018-12-04T05:05:40.961Z,9.59
2018-12-04T05:06:21.515Z,9.61
2018-12-04T05:07:02.121Z,9.72
2018-12-04T05:07:42.638Z,9.68
2018-12-04T05:08:23.189Z,9.68
2018-12-04T05:09:03.752Z,9.69
2018-12-04T05:09:44.317Z,9.66
2018-12-04T05:10:24.879Z,9.68
2018-12-04T05:11:05.424Z,9.74
2018-12-04T05:11:45.986Z,9.68
2018-12-04T05:12:26.551Z,9.72
2018-12-04T05:13:07.114Z,9.56
2018-12-04T05:13:47.652Z,9.73
2018-12-04T05:14:28.221Z,9.77
2018-12-04T05:15:08.776Z,9.65
2018-12-04T05:15:49.338Z,9.73
2018-12-04T05:16:29.900Z,9.72
2018-12-04T05:17:10.483Z,9.66
2018-12-04T05:17:51.030Z,9.65
2018-12-04T05:18:31.637Z,9.64
2018-12-04T05:19:12.186Z,9.62
2018-12-04T05:19:52.751Z,9.55
2018-12-04T05:20:33.317Z,9.5
2018-12-04T05:21:13.901Z,9.55
2018-12-04T05:21:54.449Z,9.5
2018-12-04T05:22:35.005Z,9.54
2018-12-04T05:23:15.569Z,9.51
2018-12-04T05:23:56.131Z,9.54
2018-12-04T05:24:36.684Z,9.47
2018-12-04T05:25:17.232Z,9.48
2018-12-04T05:25:57.791Z,9.47
2018-12-04T05:26:38.347Z,9.54
2018-12-04T05:27:18.909Z,9.48
2018-12-04T05:27:59.467Z,9.4
2018-12-04T05:28:40.021Z,9.44
2018-12-04T05:29:20.573Z,9.47
2018-12-04T05:30:01.148Z,9.47
2018-12-04T05:30:41.727Z,9.43
2018-12-04T05:31:22.258Z,9.43
2018-12-04T05:32:02.823Z,9.39
2018-12-04T05:32:43.394Z,9.5
2018-12-04T05:33:23.946Z,9.44
2018-12-04T05:34:04.505Z,9.36
2018-12-04T05:34:45.059Z,9.46
2018-12-04T05:35:25.632Z,9.43
2018-12-04T05:36:06.223Z,9.36
2018-12-04T05:36:46.778Z,9.41
2018-12-04T05:37:27.325Z,9.4
2018-12-04T05:38:07.878Z,9.4
2018-12-04T05:38:48.435Z,9.39
2018-12-04T05:39:29.017Z,9.34
2018-12-04T05:40:09.617Z,9.37
2018-12-04T05:40:50.187Z,9.4
2018-12-04T05:41:30.756Z,9.47
2018-12-04T05:42:11.305Z,9.4
2018-12-04T05:42:51.866Z,9.43
2018-12-04T05:43:32.425Z,9.46
2018-12-04T05:44:12.980Z,9.43
2018-12-04T05:44:53.625Z,9.34
2018-12-04T05:45:34.186Z,9.36
2018-12-04T05:46:14.806Z,9.41
2018-12-04T05:46:55.366Z,9.39
2018-12-04T05:47:35.923Z,9.46
2018-12-04T05:48:16.479Z,9.41
2018-12-04T05:48:57.034Z,9.41
2018-12-04T05:49:37.576Z,9.39
2018-12-04T05:50:18.138Z,9.39
2018-12-04T05:50:58.694Z,9.29
2018-12-04T05:51:39.272Z,9.32
2018-12-04T05:52:19.821Z,9.28
2018-12-04T05:53:00.369Z,9.25
2018-12-04T05:53:40.944Z,9.26
2018-12-04T05:54:21.526Z,9.34
2018-12-04T05:55:02.066Z,9.25
2018-12-04T05:55:42.696Z,9.36
2018-12-04T05:56:23.252Z,9.25
2018-12-04T05:57:03.810Z,9.25
2018-12-04T05:57:44.356Z,9.22
2018-12-04T05:58:24.915Z,9.23
2018-12-04T05:59:05.478Z,9.23
2018-12-04T05:59:46.046Z,9.26
2018-12-04T06:00:26.601Z,9.29
2018-12-04T06:01:07.181Z,9.23
2018-12-04T06:01:47.754Z,9.23
2018-12-04T06:02:28.310Z,9.22
2018-12-04T06:03:08.871Z,9.23
2018-12-04T06:03:49.435Z,9.25
2018-12-04T06:04:30.000Z,9.21
2018-12-04T06:05:10.565Z,9.16
2018-12-04T06:05:51.136Z,9.21
2018-12-04T06:06:31.692Z,9.25
2018-12-04T06:07:12.251Z,9.22
2018-12-04T06:07:52.808Z,9.29
2018-12-04T06:08:33.364Z,9.25
2018-12-04T06:09:13.932Z,9.19
2018-12-04T06:09:54.470Z,9.23
2018-12-04T06:10:35.040Z,9.22
2018-12-04T06:11:15.613Z,9.22
2018-12-04T06:11:56.176Z,9.21
2018-12-04T06:12:36.747Z,9.25
2018-12-04T06:13:17.315Z,9.23
2018-12-04T06:13:57.873Z,9.25
2018-12-04T06:14:38.439Z,9.22
2018-12-04T06:15:18.994Z,9.13
2018-12-04T06:15:59.548Z,9.23
2018-12-04T06:16:40.132Z,9.19
2018-12-04T06:17:20.734Z,9.25
2018-12-04T06:18:01.288Z,9.14
2018-12-04T06:18:41.900Z,9.14
2018-12-04T06:19:22.521Z,9.13
2018-12-04T06:20:03.083Z,9.19
2018-12-04T06:20:43.727Z,9.22
2018-12-04T06:21:24.265Z,9.14
2018-12-04T06:22:04.832Z,9.19
2018-12-04T06:22:45.416Z,9.25
2018-12-04T06:23:25.982Z,9.16
2018-12-04T06:24:06.564Z,9.23
2018-12-04T06:24:47.141Z,9.22
2018-12-04T06:25:27.758Z,9.25
2018-12-04T06:26:08.320Z,9.25
2018-12-04T06:26:48.903Z,9.21
2018-12-04T06:27:29.497Z,9.22
2018-12-04T06:28:10.046Z,9.18
2018-12-04T06:28:50.635Z,9.13
2018-12-04T06:29:31.187Z,9.1
2018-12-04T06:30:11.748Z,9.1
2018-12-04T06:30:52.286Z,9.1
2018-12-04T06:31:32.827Z,9.1
2018-12-04T06:32:13.422Z,9.11
2018-12-04T06:32:53.988Z,9.02
2018-12-04T06:33:34.563Z,9.11
2018-12-04T06:34:15.125Z,9.13
2018-12-04T06:34:55.717Z,9.03
2018-12-04T06:35:36.704Z,9.04
2018-12-04T06:36:17.284Z,9.16
2018-12-04T06:36:57.850Z,9.14
2018-12-04T06:37:38.420Z,9.13
2018-12-04T06:38:18.979Z,9.11
2018-12-04T06:38:59.550Z,9.11
2018-12-04T06:39:40.144Z,9.08
2018-12-04T06:40:20.702Z,9.04
2018-12-04T06:41:01.258Z,9.13
2018-12-04T06:41:41.809Z,9.16
2018-12-04T06:42:22.387Z,9.13
2018-12-04T06:43:02.965Z,9.1
2018-12-04T06:43:43.525Z,9.1
2018-12-04T06:44:24.110Z,9.11
2018-12-04T06:45:04.688Z,9.1
2018-12-04T06:45:45.257Z,9.06
2018-12-04T06:46:25.820Z,9.14
2018-12-04T06:47:06.430Z,9.08
2018-12-04T06:47:47.004Z,9.02
2018-12-04T06:48:27.581Z,8.99
2018-12-04T06:49:08.154Z,9.08
2018-12-04T06:49:48.722Z,8.99
2018-12-04T06:50:29.265Z,9.08
2018-12-04T06:51:10.835Z,9.03
2018-12-04T06:51:50.420Z,9
2018-12-04T06:52:31.037Z,8.99
2018-12-04T06:53:11.595Z,8.94
2018-12-04T06:53:52.138Z,8.89
2018-12-04T06:54:32.753Z,8.88
2018-12-04T06:55:13.383Z,8.95
2018-12-04T06:55:54.011Z,8.94
2018-12-04T06:56:34.569Z,8.88
2018-12-04T06:57:15.138Z,8.91
2018-12-04T06:57:55.712Z,8.89
2018-12-04T06:58:36.264Z,8.91
2018-12-04T06:59:16.815Z,8.92
2018-12-04T06:59:57.382Z,8.91
2018-12-04T07:00:37.943Z,8.94
2018-12-04T07:01:18.569Z,8.99
2018-12-04T07:01:59.110Z,8.87
2018-12-04T07:02:39.653Z,8.89
2018-12-04T07:03:21.475Z,8.97
2018-12-04T07:04:00.768Z,8.94
2018-12-04T07:04:41.315Z,8.87
2018-12-04T07:05:21.863Z,8.97
2018-12-04T07:06:02.437Z,8.94
2018-12-04T07:06:43.014Z,8.92
2018-12-04T07:07:23.614Z,8.89
2018-12-04T07:08:04.166Z,8.97
2018-12-04T07:08:44.731Z,8.91
2018-12-04T07:09:25.295Z,8.92
2018-12-04T07:10:05.848Z,8.89
2018-12-04T07:10:46.409Z,8.89
2018-12-04T07:11:26.961Z,8.94
2018-12-04T07:12:07.522Z,8.94
2018-12-04T07:12:48.084Z,8.97
2018-12-04T07:13:28.647Z,8.84
2018-12-04T07:14:09.238Z,8.87
2018-12-04T07:14:49.802Z,8.88
2018-12-04T07:15:30.357Z,8.89
2018-12-04T07:16:10.929Z,8.84
2018-12-04T07:16:51.478Z,8.88
2018-12-04T07:17:32.067Z,8.89
2018-12-04T07:18:12.640Z,8.81
2018-12-04T07:18:53.227Z,8.89
2018-12-04T07:19:33.794Z,8.91
2018-12-04T07:20:14.400Z,8.92
2018-12-04T07:20:54.965Z,8.91
2018-12-04T07:21:35.529Z,8.88
2018-12-04T07:22:16.083Z,8.84
2018-12-04T07:22:57.163Z,8.92
2018-12-04T07:23:37.206Z,8.94
2018-12-04T07:24:17.781Z,8.88
2018-12-04T07:24:58.348Z,8.92
2018-12-04T07:25:38.903Z,8.91
2018-12-04T07:26:19.454Z,8.88
2018-12-04T07:27:00.007Z,8.81
2018-12-04T07:27:40.573Z,8.88
2018-12-04T07:28:21.134Z,8.85
2018-12-04T07:29:01.682Z,8.79
2018-12-04T07:29:42.257Z,8.82
2018-12-04T07:30:22.866Z,8.88
2018-12-04T07:31:03.402Z,8.89
2018-12-04T07:31:43.967Z,8.92
2018-12-04T07:32:24.536Z,8.95
2018-12-04T07:33:05.262Z,8.89
2018-12-04T07:33:45.842Z,8.89
2018-12-04T07:34:26.418Z,8.89
2018-12-04T07:35:07.006Z,8.87
2018-12-04T07:35:47.847Z,8.92
2018-12-04T07:36:28.442Z,8.88
2018-12-04T07:37:08.978Z,8.85
2018-12-04T07:37:49.644Z,8.89
2018-12-04T07:38:30.196Z,8.95
2018-12-04T07:39:10.847Z,8.95
2018-12-04T07:39:51.384Z,8.87
2018-12-04T07:40:31.937Z,8.92
2018-12-04T07:41:12.582Z,8.88
2018-12-04T07:41:53.200Z,8.94
2018-12-04T07:42:33.756Z,8.91
2018-12-04T07:43:14.319Z,8.87
2018-12-04T07:43:54.988Z,8.92
2018-12-04T07:44:35.545Z,8.94
2018-12-04T07:45:16.114Z,8.95
2018-12-04T07:45:56.730Z,9
2018-12-04T07:46:37.250Z,8.87
2018-12-04T07:47:17.890Z,8.95
2018-12-04T07:47:58.452Z,9.06
2018-12-04T07:48:39.116Z,8.94
2018-12-04T07:49:19.687Z,8.92
2018-12-04T07:50:00.248Z,8.88
2018-12-04T07:50:40.795Z,8.99
2018-12-04T07:51:21.619Z,8.92
2018-12-04T07:52:02.195Z,8.95
2018-12-04T07:52:43.144Z,8.94
2018-12-04T07:53:24.138Z,8.89
2018-12-04T07:54:05.147Z,8.91
2018-12-04T07:54:45.869Z,8.92
2018-12-04T07:55:26.437Z,8.95
2018-12-04T07:56:07.088Z,9.02
2018-12-04T07:56:47.636Z,8.95
2018-12-04T07:57:28.200Z,8.95
2018-12-04T07:58:08.767Z,8.95
2018-12-04T07:58:49.367Z,8.97
2018-12-04T07:59:29.927Z,8.89
2018-12-04T08:00:10.579Z,8.92
2018-12-04T08:00:51.143Z,8.92
2018-12-04T08:01:31.771Z,8.94
2018-12-04T08:02:12.329Z,8.88
2018-12-04T08:02:52.978Z,8.94
2018-12-04T08:03:33.554Z,8.99
2018-12-04T08:04:14.162Z,8.94
2018-12-04T08:04:54.735Z,8.94
2018-12-04T08:05:35.290Z,8.94
2018-12-04T08:06:15.863Z,8.97
2018-12-04T08:06:56.410Z,8.95
2018-12-04T08:07:36.979Z,8.91
2018-12-04T08:08:17.538Z,9.08
2018-12-04T08:08:58.149Z,8.97
2018-12-04T08:09:38.717Z,8.95
2018-12-04T08:10:19.262Z,8.92
2018-12-04T08:10:59.808Z,8.97
2018-12-04T08:11:40.385Z,8.95
2018-12-04T08:12:20.968Z,8.97
2018-12-04T08:13:01.566Z,9.1
2018-12-04T08:13:42.099Z,9.08
2018-12-04T08:14:22.653Z,8.99
2018-12-04T08:15:03.216Z,8.95
2018-12-04T08:15:43.785Z,8.95
2018-12-04T08:16:24.424Z,8.99
2018-12-04T08:17:04.926Z,9.02
2018-12-04T08:17:45.484Z,8.99
2018-12-04T08:18:26.053Z,8.95
2018-12-04T08:19:06.603Z,9.11
2018-12-04T08:19:47.195Z,8.97
2018-12-04T08:20:27.757Z,8.99
2018-12-04T08:21:08.328Z,9.08
2018-12-04T08:21:48.885Z,8.97
2018-12-04T08:22:29.447Z,9.04
2018-12-04T08:23:10.004Z,9.08
2018-12-04T08:23:50.563Z,8.95
2018-12-04T08:24:31.140Z,8.91
2018-12-04T08:25:11.700Z,8.99
2018-12-04T08:25:52.249Z,8.94
2018-12-04T08:26:32.798Z,8.97
2018-12-04T08:27:13.373Z,8.97
2018-12-04T08:27:53.940Z,8.92
2018-12-04T08:28:34.500Z,8.94
2018-12-04T08:29:15.074Z,8.97
2018-12-04T08:29:55.628Z,8.89
2018-12-04T08:30:36.196Z,8.91
2018-12-04T08:31:16.750Z,8.95
2018-12-04T08:31:57.324Z,8.95
2018-12-04T08:32:37.898Z,8.94
2018-12-04T08:33:18.456Z,8.99
2018-12-04T08:33:59.033Z,8.95
2018-12-04T08:34:39.612Z,9.02
2018-12-04T08:35:20.146Z,8.95
2018-12-04T08:36:00.770Z,9.02
2018-12-04T08:36:41.561Z,9.1
2018-12-04T08:37:22.255Z,9.04
2018-12-04T08:38:03.114Z,8.94
2018-12-04T08:38:44.097Z,9.02
2018-12-04T08:39:25.321Z,9.06
2018-12-04T08:40:06.036Z,9.16
2018-12-04T08:40:46.784Z,9.34
2018-12-04T08:41:27.346Z,9.44
2018-12-04T08:42:07.921Z,9.54
2018-12-04T08:42:48.500Z,9.61
2018-12-04T08:43:29.103Z,9.72
2018-12-04T08:44:09.777Z,9.73
2018-12-04T08:44:50.489Z,9.84
2018-12-04T08:45:31.537Z,9.84
2018-12-04T08:46:12.736Z,9.94
2018-12-04T08:46:53.608Z,10.04
2018-12-04T08:47:34.595Z,10.2
2018-12-04T08:48:15.574Z,10.25
2018-12-04T08:48:56.765Z,10.37
2018-12-04T08:49:37.604Z,10.35
2018-12-04T08:50:18.426Z,10.38
2018-12-04T08:50:59.245Z,10.48
2018-12-04T08:51:40.105Z,10.56
2018-12-04T08:52:21.008Z,10.59
2018-12-04T08:53:02.058Z,10.79